createdAt,value
2022-12-04T00:01:30.184Z,2.33
2022-12-04T00:04:00.874Z,1.98
2022-12-04T00:06:30.772Z,2.65
2022-12-04T00:08:59.760Z,2.60
2022-12-04T00:11:31.626Z,2.10
2022-12-04T00:14:06.811Z,1.73
2022-12-04T00:16:36.662Z,2.30
2022-12-04T00:19:06.549Z,2.20
2022-12-04T00:21:35.518Z,2.33
2022-12-04T00:24:04.978Z,2.28
2022-12-04T00:26:34.012Z,2.08
2022-12-04T00:29:04.525Z,2.17
2022-12-04T00:31:33.745Z,1.92
2022-12-04T00:34:07.803Z,3.30
2022-12-04T00:36:37.285Z,1.80
2022-12-04T00:39:06.708Z,2.30
2022-12-04T00:41:35.980Z,2.05
2022-12-04T00:44:06.449Z,2.15
2022-12-04T00:46:35.469Z,1.80
2022-12-04T00:49:04.595Z,2.17
2022-12-04T00:51:33.584Z,1.92
2022-12-04T00:54:02.514Z,2.00
2022-12-04T00:56:31.463Z,3.28
2022-12-04T00:59:02.387Z,2.50
2022-12-04T01:01:32.869Z,2.60
2022-12-04T01:04:01.983Z,2.60
2022-12-04T01:06:33.285Z,2.60
2022-12-04T01:11:32.238Z,2.67
2022-12-04T01:14:01.993Z,2.40
2022-12-04T01:16:35.989Z,2.28
2022-12-04T01:19:06.243Z,2.83
2022-12-04T01:21:36.079Z,2.47
2022-12-04T01:24:05.729Z,2.63
2022-12-04T01:26:34.961Z,2.20
2022-12-04T01:29:04.772Z,2.50
2022-12-04T01:31:35.178Z,2.25
2022-12-04T01:34:04.235Z,2.03
2022-12-04T01:36:33.220Z,1.70
2022-12-04T01:39:02.339Z,1.80
2022-12-04T01:41:32.217Z,1.50
2022-12-04T01:44:15.996Z,1.50
2022-12-04T01:46:47.763Z,1.67
2022-12-04T01:49:20.679Z,1.88
2022-12-04T01:51:52.858Z,1.85
2022-12-04T01:54:28.804Z,1.70
2022-12-04T01:57:03.232Z,1.92
2022-12-04T01:59:36.837Z,1.80
2022-12-04T02:02:12.143Z,2.13
2022-12-04T02:04:42.612Z,1.83
2022-12-04T02:07:11.827Z,2.05
2022-12-04T02:09:42.245Z,1.73
2022-12-04T02:12:21.467Z,2.00
2022-12-04T02:14:59.795Z,2.00
2022-12-04T02:17:36.025Z,1.67
2022-12-04T02:20:16.117Z,1.77
2022-12-04T02:23:04.841Z,1.80
2022-12-04T02:25:41.148Z,2.05
2022-12-04T02:28:18.963Z,1.85
2022-12-04T02:30:49.688Z,2.70
2022-12-04T02:33:23.399Z,2.70
2022-12-04T02:36:00.266Z,2.20
2022-12-04T02:38:33.965Z,2.28
2022-12-04T02:41:07.825Z,2.70
2022-12-04T02:43:43.824Z,2.78
2022-12-04T02:46:19.744Z,2.80
2022-12-04T02:48:52.801Z,3.22
2022-12-04T02:51:24.422Z,2.88
2022-12-04T02:53:58.072Z,2.30
2022-12-04T02:56:30.099Z,2.67
2022-12-04T02:59:03.622Z,2.28
2022-12-04T03:01:36.330Z,2.80
2022-12-04T03:04:11.211Z,2.75
2022-12-04T03:06:43.707Z,2.35
2022-12-04T03:09:23.128Z,2.35
2022-12-04T03:11:57.418Z,2.85
2022-12-04T03:14:32.008Z,3.00
2022-12-04T03:17:05.158Z,3.35
2022-12-04T03:19:38.513Z,3.00
2022-12-04T03:22:16.126Z,2.38
2022-12-04T03:24:49.439Z,2.58
2022-12-04T03:27:27.405Z,1.80
2022-12-04T03:30:03.334Z,2.28
2022-12-04T03:32:37.904Z,2.90
2022-12-04T03:35:13.869Z,1.98
2022-12-04T03:37:46.905Z,1.95
2022-12-04T03:40:22.153Z,1.98
2022-12-04T03:42:57.760Z,2.58
2022-12-04T03:45:31.963Z,2.63
2022-12-04T03:48:06.864Z,2.70
2022-12-04T03:50:39.003Z,2.67
2022-12-04T03:53:13.685Z,2.90
2022-12-04T03:55:46.682Z,3.05
2022-12-04T03:58:20.952Z,2.92
2022-12-04T04:00:54.222Z,2.50
2022-12-04T04:03:28.463Z,3.00
2022-12-04T04:06:03.786Z,3.17
2022-12-04T04:08:37.330Z,2.65
2022-12-04T04:11:12.982Z,3.08
2022-12-04T04:14:06.504Z,2.47
2022-12-04T04:16:59.200Z,2.70
2022-12-04T04:19:48.562Z,2.33
2022-12-04T04:22:37.660Z,2.53
2022-12-04T04:25:10.054Z,2.75
2022-12-04T04:27:38.992Z,2.33
2022-12-04T04:30:09.813Z,2.30
2022-12-04T04:32:46.302Z,2.90
2022-12-04T04:35:22.161Z,3.03
2022-12-04T04:37:57.893Z,3.03
2022-12-04T04:40:34.089Z,2.67
2022-12-04T04:43:10.717Z,2.80
2022-12-04T04:45:45.950Z,2.47
2022-12-04T04:48:20.737Z,2.80
2022-12-04T04:50:51.176Z,2.38
2022-12-04T04:53:24.658Z,2.03
2022-12-04T04:55:54.104Z,1.80
2022-12-04T04:58:23.245Z,2.20
2022-12-04T05:00:59.466Z,2.13
2022-12-04T05:03:31.448Z,2.20
2022-12-04T05:06:00.542Z,2.28
2022-12-04T05:08:29.515Z,2.15
2022-12-04T05:10:58.486Z,2.15
2022-12-04T05:13:30.026Z,2.03
2022-12-04T05:15:59.738Z,2.63
2022-12-04T05:18:31.024Z,2.58
2022-12-04T05:23:27.809Z,2.30
2022-12-04T05:26:01.280Z,2.15
2022-12-04T05:28:30.310Z,2.80
2022-12-04T05:31:02.121Z,2.65
2022-12-04T05:33:32.768Z,2.40
2022-12-04T05:36:03.105Z,2.35
2022-12-04T05:38:32.774Z,2.57
2022-12-04T05:41:02.937Z,1.45
2022-12-04T05:43:32.701Z,1.73
2022-12-04T05:46:02.743Z,1.50
2022-12-04T05:48:34.804Z,0.93
2022-12-04T05:51:06.886Z,1.30
2022-12-04T05:53:36.147Z,1.30
2022-12-04T05:56:07.471Z,1.50
2022-12-04T05:58:37.207Z,2.00
2022-12-04T06:01:11.068Z,2.53
2022-12-04T06:03:41.579Z,2.50
2022-12-04T06:06:20.764Z,2.63
2022-12-04T06:08:51.314Z,2.45
2022-12-04T06:11:22.328Z,2.50
2022-12-04T06:13:51.918Z,2.13
2022-12-04T06:16:22.343Z,2.90
2022-12-04T06:18:54.471Z,2.42
2022-12-04T06:21:25.344Z,2.28
2022-12-04T06:23:55.272Z,2.22
2022-12-04T06:26:24.916Z,2.47
2022-12-04T06:28:54.806Z,2.25
2022-12-04T06:31:24.905Z,2.28
2022-12-04T06:33:57.022Z,2.30
2022-12-04T06:36:26.621Z,1.88
2022-12-04T06:38:57.769Z,1.90
2022-12-04T06:41:28.311Z,2.00
2022-12-04T06:43:57.619Z,2.10
2022-12-04T06:46:28.002Z,2.22
2022-12-04T06:48:59.847Z,2.27
2022-12-04T06:51:30.487Z,2.17
2022-12-04T06:53:59.997Z,2.20
2022-12-04T06:56:30.902Z,2.15
2022-12-04T06:59:01.918Z,2.65
2022-12-04T07:01:33.375Z,1.98
2022-12-04T07:04:05.031Z,2.47
2022-12-04T07:06:35.546Z,2.45
2022-12-04T07:09:07.027Z,2.72
2022-12-04T07:11:36.363Z,2.72
2022-12-04T07:14:05.566Z,2.58
2022-12-04T07:16:40.355Z,2.40
2022-12-04T07:19:13.773Z,3.25
2022-12-04T07:21:44.085Z,2.63
2022-12-04T07:24:16.876Z,2.70
2022-12-04T07:26:46.320Z,2.92
2022-12-04T07:29:15.577Z,2.53
2022-12-04T07:31:45.506Z,2.22
2022-12-04T07:34:15.885Z,2.53
2022-12-04T07:36:45.354Z,2.37
2022-12-04T07:39:17.191Z,2.80
2022-12-04T07:41:48.533Z,1.98
2022-12-04T07:44:17.527Z,2.45
2022-12-04T07:46:46.526Z,2.78
2022-12-04T07:49:16.924Z,2.67
2022-12-04T07:51:45.879Z,2.03
2022-12-04T07:54:14.890Z,1.75
2022-12-04T07:56:43.907Z,2.33
2022-12-04T07:59:12.938Z,2.40
2022-12-04T08:01:42.022Z,3.28
2022-12-04T08:04:12.848Z,2.47
2022-12-04T08:06:43.228Z,2.53
2022-12-04T08:09:12.268Z,2.37
2022-12-04T08:11:41.750Z,1.98
2022-12-04T08:14:13.590Z,2.40
2022-12-04T08:16:48.222Z,3.33
2022-12-04T08:19:20.356Z,2.50
2022-12-04T08:21:51.029Z,2.30
2022-12-04T08:24:20.060Z,1.85
2022-12-04T08:26:49.083Z,2.78
2022-12-04T08:29:18.209Z,3.67
2022-12-04T08:31:47.290Z,2.33
2022-12-04T08:34:16.573Z,2.30
2022-12-04T08:36:45.616Z,2.63
2022-12-04T08:39:16.062Z,3.03
2022-12-04T08:41:45.076Z,2.42
2022-12-04T08:44:14.203Z,2.40
2022-12-04T08:46:43.356Z,2.60
2022-12-04T08:49:12.525Z,2.83
2022-12-04T08:51:41.515Z,2.55
2022-12-04T08:54:13.381Z,2.42
2022-12-04T08:56:44.532Z,2.42
2022-12-04T08:59:14.506Z,2.67
2022-12-04T09:01:43.597Z,2.42
2022-12-04T09:04:12.803Z,2.75
2022-12-04T09:06:41.876Z,2.30
2022-12-04T09:09:10.797Z,2.95
2022-12-04T09:11:40.187Z,3.03
2022-12-04T09:14:10.496Z,2.65
2022-12-04T09:16:39.920Z,2.93
2022-12-04T09:19:08.903Z,2.47
2022-12-04T09:21:38.573Z,2.10
2022-12-04T09:24:07.777Z,2.08
2022-12-04T09:26:36.814Z,1.55
2022-12-04T09:29:06.804Z,1.92
2022-12-04T09:31:37.327Z,2.70
2022-12-04T09:34:06.343Z,2.17
2022-12-04T09:36:35.298Z,2.10
2022-12-04T09:39:04.297Z,2.03
2022-12-04T09:42:03.966Z,1.85
2022-12-04T09:44:36.441Z,2.55
2022-12-04T09:47:13.293Z,1.92
2022-12-04T09:49:46.551Z,2.33
2022-12-04T09:52:27.139Z,2.45
2022-12-04T09:54:58.866Z,2.10
2022-12-04T09:57:37.964Z,2.17
2022-12-04T10:00:12.887Z,1.85
2022-12-04T10:02:45.671Z,1.60
2022-12-04T10:05:20.055Z,1.48
2022-12-04T10:07:56.824Z,1.20
2022-12-04T10:10:36.577Z,1.30
2022-12-04T10:13:22.216Z,1.50
2022-12-04T10:15:56.674Z,1.45
2022-12-04T10:18:48.104Z,1.50
2022-12-04T10:21:31.143Z,1.50
2022-12-04T10:24:15.208Z,1.70
2022-12-04T10:26:47.123Z,1.63
2022-12-04T10:29:21.913Z,1.60
2022-12-04T10:31:53.265Z,1.70
2022-12-04T10:34:27.598Z,1.90
2022-12-04T10:37:00.452Z,1.30
2022-12-04T10:39:35.476Z,1.15
2022-12-04T10:42:18.145Z,1.70
2022-12-04T10:44:49.395Z,1.50
2022-12-04T10:49:48.843Z,1.90
2022-12-04T10:52:18.538Z,2.40
2022-12-04T10:54:51.258Z,2.10
2022-12-04T10:57:20.245Z,1.70
2022-12-04T10:59:53.597Z,1.85
2022-12-04T11:02:25.737Z,1.40
2022-12-04T11:04:59.268Z,1.65
2022-12-04T11:07:30.334Z,1.88
2022-12-04T11:10:03.259Z,2.63
2022-12-04T11:12:33.592Z,2.50
2022-12-04T11:15:05.781Z,2.28
2022-12-04T11:17:35.340Z,2.28
2022-12-04T11:20:09.125Z,2.65
2022-12-04T11:22:49.230Z,2.28
2022-12-04T11:25:20.635Z,2.33
2022-12-04T11:27:52.984Z,2.38
2022-12-04T11:30:26.283Z,2.42
2022-12-04T11:32:55.901Z,2.00
2022-12-04T11:35:28.488Z,1.27
2022-12-04T11:38:00.176Z,1.05
2022-12-04T11:40:29.708Z,1.50
2022-12-04T11:43:04.203Z,1.70
2022-12-04T11:45:34.045Z,2.10
2022-12-04T11:48:14.607Z,1.90
2022-12-04T11:50:52.106Z,1.85
2022-12-04T11:53:26.937Z,1.85
2022-12-04T11:56:18.334Z,2.15
2022-12-04T11:59:09.496Z,2.58
2022-12-04T12:01:47.373Z,2.92
2022-12-04T12:04:30.561Z,2.63
2022-12-04T12:07:14.864Z,2.15
2022-12-04T12:09:52.170Z,2.10
2022-12-04T12:12:28.151Z,1.95
2022-12-04T12:15:09.320Z,2.08
2022-12-04T12:17:46.965Z,1.67
2022-12-04T12:20:22.452Z,1.40
2022-12-04T12:23:18.022Z,1.40
2022-12-04T12:25:56.434Z,1.75
2022-12-04T12:28:46.363Z,1.63
2022-12-04T12:31:44.740Z,2.22
2022-12-04T12:34:19.299Z,1.90
2022-12-04T12:36:56.433Z,3.40
2022-12-04T12:39:38.214Z,2.10
2022-12-04T12:42:15.909Z,3.28
2022-12-04T12:44:54.591Z,2.60
2022-12-04T12:47:27.077Z,2.40
2022-12-04T12:50:01.237Z,2.30
2022-12-04T12:52:39.529Z,2.72
2022-12-04T12:55:19.223Z,2.17
2022-12-04T12:57:52.098Z,2.78
2022-12-04T13:00:23.137Z,2.63
2022-12-04T13:02:56.901Z,2.65
2022-12-04T13:05:31.415Z,2.28
2022-12-04T13:08:07.100Z,2.67
2022-12-04T13:10:42.951Z,2.72
2022-12-04T13:13:18.790Z,2.92
2022-12-04T13:15:51.531Z,2.60
2022-12-04T13:18:25.392Z,3.45
2022-12-04T13:20:58.106Z,2.60
2022-12-04T13:23:45.729Z,2.95
2022-12-04T13:26:36.918Z,3.08
2022-12-04T13:29:15.674Z,2.72
2022-12-04T13:31:53.691Z,3.83
2022-12-04T13:34:36.991Z,3.50
2022-12-04T13:37:29.346Z,2.65
2022-12-04T13:40:31.791Z,2.70
2022-12-04T13:43:31.662Z,3.70
2022-12-04T13:46:03.624Z,2.42
2022-12-04T13:48:36.898Z,2.15
2022-12-04T13:51:22.354Z,5.05
2022-12-04T13:54:03.103Z,4.72
2022-12-04T13:56:36.144Z,3.47
2022-12-04T13:59:20.815Z,3.97
2022-12-04T14:01:52.138Z,3.55
2022-12-04T14:04:29.518Z,3.45
2022-12-04T14:07:01.194Z,3.72
2022-12-04T14:09:38.883Z,3.67
2022-12-04T14:12:11.750Z,4.15
2022-12-04T14:14:47.049Z,3.42
2022-12-04T14:17:25.514Z,4.25
2022-12-04T14:19:59.896Z,3.55
2022-12-04T14:22:45.106Z,3.72
2022-12-04T14:25:34.290Z,3.65
2022-12-04T14:28:25.901Z,3.35
2022-12-04T14:31:21.321Z,4.72
2022-12-04T14:33:53.509Z,5.40
2022-12-04T14:36:26.109Z,4.03
2022-12-04T14:39:04.214Z,3.88
2022-12-04T14:41:34.240Z,3.88
2022-12-04T14:44:03.708Z,4.47
2022-12-04T14:46:40.678Z,4.00
2022-12-04T14:49:23.022Z,4.55
2022-12-04T14:52:00.961Z,4.65
2022-12-04T14:54:37.436Z,3.80
2022-12-04T14:57:22.314Z,3.05
2022-12-04T14:59:53.782Z,4.45
2022-12-04T15:02:29.215Z,4.50
2022-12-04T15:04:58.663Z,3.70
2022-12-04T15:07:30.565Z,3.00
2022-12-04T15:10:21.020Z,3.47
2022-12-04T15:12:51.429Z,3.70
2022-12-04T15:15:25.269Z,2.90
2022-12-04T15:18:00.807Z,3.60
2022-12-04T15:20:37.571Z,3.42
2022-12-04T15:23:08.404Z,4.07
2022-12-04T15:25:44.374Z,3.30
2022-12-04T15:28:17.898Z,4.32
2022-12-04T15:30:49.062Z,4.38
2022-12-04T15:33:23.243Z,3.55
2022-12-04T15:35:56.891Z,3.40
2022-12-04T15:38:25.997Z,4.20
2022-12-04T15:40:57.044Z,4.03
2022-12-04T15:43:31.737Z,3.20
2022-12-04T15:46:00.930Z,3.47
2022-12-04T15:48:32.747Z,4.10
2022-12-04T15:51:05.245Z,5.00
2022-12-04T15:53:37.772Z,3.97
2022-12-04T15:56:09.439Z,3.88
2022-12-04T15:58:40.812Z,4.68
2022-12-04T16:01:11.667Z,5.32
2022-12-04T16:03:49.684Z,4.70
2022-12-04T16:06:21.620Z,5.82
2022-12-04T16:08:52.160Z,5.10
2022-12-04T16:11:29.470Z,5.35
2022-12-04T16:14:15.991Z,4.80
2022-12-04T16:16:47.180Z,4.43
2022-12-04T16:19:24.127Z,3.78
2022-12-04T16:21:53.807Z,4.47
2022-12-04T16:24:22.910Z,4.10
2022-12-04T16:26:53.180Z,4.45
2022-12-04T16:29:22.727Z,4.00
2022-12-04T16:31:52.459Z,4.88
2022-12-04T16:34:22.951Z,3.42
2022-12-04T16:36:51.923Z,3.60
2022-12-04T16:39:20.882Z,3.80
2022-12-04T16:41:49.811Z,3.83
2022-12-04T16:44:18.987Z,4.32
2022-12-04T16:46:48.214Z,3.40
2022-12-04T16:49:17.232Z,3.92
2022-12-04T16:51:50.721Z,4.32
2022-12-04T16:54:19.695Z,4.10
2022-12-04T16:56:48.647Z,4.20
2022-12-04T16:59:17.646Z,3.50
2022-12-04T17:01:49.280Z,4.60
2022-12-04T17:04:19.881Z,5.07
2022-12-04T17:06:50.366Z,6.00
2022-12-04T17:09:19.744Z,5.97
2022-12-04T17:11:48.812Z,5.00
2022-12-04T17:14:17.792Z,6.13
2022-12-04T17:16:47.436Z,6.60
2022-12-04T17:19:17.130Z,4.78
2022-12-04T17:21:46.308Z,7.10
2022-12-04T17:24:16.664Z,15.70
2022-12-04T17:26:45.655Z,6.87
2022-12-04T17:29:14.730Z,8.85
2022-12-04T17:31:43.809Z,5.68
2022-12-04T17:34:12.821Z,6.30
2022-12-04T17:36:41.863Z,14.88
2022-12-04T17:39:11.735Z,3.90
2022-12-04T17:41:42.176Z,4.22
2022-12-04T17:44:11.224Z,3.85
2022-12-04T17:46:40.200Z,3.63
2022-12-04T17:49:09.218Z,3.83
2022-12-04T17:51:38.498Z,3.47
2022-12-04T17:54:08.679Z,4.95
2022-12-04T17:56:37.693Z,6.93
2022-12-04T17:59:08.687Z,5.40
2022-12-04T18:01:37.663Z,4.90
2022-12-04T18:04:09.190Z,5.57
2022-12-04T18:06:40.795Z,5.65
2022-12-04T18:09:11.907Z,5.53
2022-12-04T18:11:42.811Z,4.70
2022-12-04T18:14:15.773Z,4.07
2022-12-04T18:16:46.833Z,4.80
2022-12-04T18:19:16.427Z,4.78
2022-12-04T18:21:45.403Z,4.72
2022-12-04T18:24:15.300Z,4.47
2022-12-04T18:26:48.076Z,5.22
2022-12-04T18:29:20.738Z,4.05
2022-12-04T18:31:51.246Z,3.90
2022-12-04T18:34:21.434Z,4.75
2022-12-04T18:36:50.820Z,4.70
2022-12-04T18:39:22.005Z,3.20
2022-12-04T18:41:51.354Z,4.05
2022-12-04T18:44:21.750Z,5.00
2022-12-04T18:46:50.712Z,4.23
2022-12-04T18:49:19.789Z,3.90
2022-12-04T18:51:50.562Z,4.03
2022-12-04T18:54:22.106Z,4.10
2022-12-04T18:56:51.264Z,3.75
2022-12-04T18:59:25.679Z,3.10
2022-12-04T19:01:55.612Z,3.97
2022-12-04T19:04:26.377Z,3.75
2022-12-04T19:06:57.056Z,3.60
2022-12-04T19:12:17.065Z,4.15
2022-12-04T19:14:47.454Z,4.22
2022-12-04T19:17:17.003Z,4.40
2022-12-04T19:19:46.036Z,3.60
2022-12-04T19:22:15.090Z,4.43
2022-12-04T19:24:44.053Z,6.65
2022-12-04T19:27:13.189Z,5.35
2022-12-04T19:29:43.461Z,3.58
2022-12-04T19:32:13.843Z,4.70
2022-12-04T19:34:42.914Z,4.97
2022-12-04T19:37:11.864Z,4.57
2022-12-04T19:39:40.897Z,3.97
2022-12-04T19:42:10.254Z,5.35
2022-12-04T19:44:48.509Z,7.50
2022-12-04T19:47:20.160Z,6.10
2022-12-04T19:49:49.488Z,4.63
2022-12-04T19:52:19.026Z,3.75
2022-12-04T19:54:48.291Z,8.98
2022-12-04T19:57:17.531Z,4.18
2022-12-04T19:59:46.985Z,4.18
2022-12-04T20:02:16.403Z,5.85
2022-12-04T20:04:46.957Z,6.57
2022-12-04T20:07:15.991Z,3.20
2022-12-04T20:09:51.999Z,3.03
2022-12-04T20:12:21.598Z,3.20
2022-12-04T20:14:50.598Z,3.28
2022-12-04T20:17:19.540Z,3.13
2022-12-04T20:19:50.004Z,2.70
2022-12-04T20:22:18.955Z,3.30
2022-12-04T20:24:47.971Z,2.88
2022-12-04T20:27:17.152Z,2.88
2022-12-04T20:29:46.334Z,3.33
2022-12-04T20:32:15.337Z,3.20
2022-12-04T20:34:44.658Z,3.38
2022-12-04T20:37:14.976Z,3.30
2022-12-04T20:39:44.059Z,2.73
2022-12-04T20:42:13.031Z,2.92
2022-12-04T20:44:42.112Z,2.97
2022-12-04T20:47:11.145Z,3.30
2022-12-04T20:49:40.170Z,4.13
2022-12-04T20:52:09.175Z,4.03
2022-12-04T20:54:41.763Z,4.28
2022-12-04T20:57:11.102Z,5.38
2022-12-04T20:59:40.204Z,6.10
2022-12-04T21:02:09.237Z,5.78
2022-12-04T21:04:38.982Z,6.13
2022-12-04T21:07:08.466Z,10.85
2022-12-04T21:09:37.432Z,13.13
2022-12-04T21:12:29.450Z,17.65
2022-12-04T21:15:16.112Z,15.20
2022-12-04T21:17:45.269Z,16.17
2022-12-04T21:20:17.620Z,9.10
2022-12-04T21:22:46.675Z,6.55
2022-12-04T21:25:15.807Z,4.70
2022-12-04T21:27:46.173Z,5.90
2022-12-04T21:30:15.617Z,5.13
2022-12-04T21:32:44.688Z,6.45
2022-12-04T21:35:13.712Z,5.45
2022-12-04T21:37:42.749Z,5.05
2022-12-04T21:40:12.080Z,4.50
2022-12-04T21:42:41.494Z,4.38
2022-12-04T21:45:12.498Z,4.15
2022-12-04T21:47:41.492Z,4.78
2022-12-04T21:50:10.985Z,4.53
2022-12-04T21:52:40.019Z,5.32
2022-12-04T21:55:09.556Z,4.40
2022-12-04T21:57:38.794Z,4.50
2022-12-04T22:00:09.114Z,4.78
2022-12-04T22:02:40.093Z,4.53
2022-12-04T22:05:09.777Z,4.70
2022-12-04T22:07:38.904Z,4.25
2022-12-04T22:10:11.008Z,5.35
2022-12-04T22:12:49.863Z,4.13
2022-12-04T22:15:20.087Z,4.00
2022-12-04T22:17:50.610Z,3.60
2022-12-04T22:20:20.110Z,4.57
2022-12-04T22:22:49.211Z,4.50
2022-12-04T22:25:18.335Z,4.45
2022-12-04T22:27:47.388Z,3.78
2022-12-04T22:30:17.062Z,3.33
2022-12-04T22:32:46.116Z,3.35
2022-12-04T22:35:16.748Z,3.30
2022-12-04T22:37:45.717Z,3.67
2022-12-04T22:40:15.635Z,3.72
2022-12-04T22:42:45.409Z,3.50
2022-12-04T22:45:14.437Z,4.00
2022-12-04T22:47:43.554Z,3.70
2022-12-04T22:50:12.992Z,4.53
2022-12-04T22:52:43.350Z,4.88
2022-12-04T22:55:12.876Z,4.20
2022-12-04T22:57:41.944Z,4.28
2022-12-04T23:00:16.805Z,4.18
2022-12-04T23:02:46.439Z,4.63
2022-12-04T23:05:17.482Z,4.78
2022-12-04T23:07:48.016Z,4.78
2022-12-04T23:10:17.305Z,4.40
2022-12-04T23:12:46.402Z,3.85
2022-12-04T23:15:15.502Z,4.55
2022-12-04T23:17:44.508Z,4.80
2022-12-04T23:20:13.592Z,5.05
2022-12-04T23:22:42.591Z,5.75
2022-12-04T23:25:13.017Z,5.82
2022-12-04T23:27:41.991Z,5.60
2022-12-04T23:30:11.236Z,5.45
2022-12-04T23:32:40.219Z,5.28
2022-12-04T23:35:09.811Z,5.65
2022-12-04T23:37:38.781Z,5.78
2022-12-04T23:40:09.006Z,5.40
2022-12-04T23:42:39.402Z,4.93
2022-12-04T23:45:09.378Z,5.20
2022-12-04T23:47:38.455Z,4.75
2022-12-04T23:50:08.309Z,4.78
2022-12-04T23:52:37.223Z,5.60
2022-12-04T23:55:06.893Z,5.70
2022-12-04T23:57:35.862Z,5.13
